Time;durP1;ratioP1;P1;durP2;ratioP2;P2;SDS_P1;SDS_P2;PMS_P1;PMS_P2;Temp;Humidity;BMP_temperature;BMP_pressure;BME280_temperature;BME280_humidity;BME280_pressure;Samples;Min_cycle;Max_cycle;Signal;HPM_P1;HPM_P2
2022/01/22 00:01:05;;;;;;;;;;;;;;;-6.80;76.37;97372.45;110547;1244;59745;-64
2022/01/22 00:03:34;;;;;;;9.00;5.80;;;;;;;-6.82;76.34;97376.86;110329;1244;71570;-63
2022/01/22 00:06:05;;;;;;;9.70;6.10;;;;;;;-6.83;76.43;97377.89;110099;1247;68621;-66
2022/01/22 00:08:34;;;;;;;13.00;9.60;;;;;;;-6.83;76.56;97379.75;110068;1247;69520;-66
2022/01/22 00:11:04;;;;;;;16.10;9.80;;;;;;;-6.82;76.60;97375.34;110588;1245;59748;-63
2022/01/22 00:16:21;;;;;;;14.80;10.40;;;;;;;-6.88;76.77;97376.73;110140;1246;70624;-64
2022/01/22 00:18:51;;;;;;;16.20;9.70;;;;;;;-6.89;76.57;97374.52;110501;1244;68594;-67
2022/01/22 00:21:20;;;;;;;14.20;10.10;;;;;;;-6.95;76.83;97367.95;110163;1245;68632;-65
2022/01/22 00:23:56;;;;;;;16.70;11.10;;;;;;;-6.97;77.11;97361.67;110397;1244;59758;-67
2022/01/22 00:26:26;;;;;;;17.40;10.10;;;;;;;-6.96;77.07;97356.59;110138;1247;59743;-69
2022/01/22 00:28:56;;;;;;;9.70;6.70;;;;;;;-6.94;76.82;97350.64;110150;1245;70993;-64
2022/01/22 00:31:25;;;;;;;13.70;8.80;;;;;;;-6.91;76.75;97345.89;110150;1245;67755;-67
2022/01/22 00:33:55;;;;;;;10.00;6.50;;;;;;;-6.88;76.55;97347.91;110325;1245;69519;-66
2022/01/22 00:36:24;;;;;;;16.00;9.90;;;;;;;-6.84;76.39;97345.35;110412;1244;59745;-71
2022/01/22 00:38:54;;;;;;;16.70;9.30;;;;;;;-6.81;76.35;97346.52;110568;1244;59665;-68
2022/01/22 00:41:25;;;;;;;15.40;9.20;;;;;;;-6.80;76.26;97347.36;110456;1244;71557;-67
2022/01/22 00:43:55;;;;;;;15.60;9.20;;;;;;;-6.78;76.11;97345.16;110377;1244;68345;-66
2022/01/22 00:46:25;;;;;;;18.90;10.50;;;;;;;-6.82;76.34;97343.15;110377;1244;69208;-66
2022/01/22 00:48:55;;;;;;;;;;;;;;;-6.85;76.32;97344.52;110416;1244;59754;-68
2022/01/22 00:51:24;;;;;;;17.50;9.70;;;;;;;-6.91;76.66;97339.80;110439;1244;60110;-67
2022/01/22 00:54:01;;;;;;;9.70;6.40;;;;;;;-6.95;76.76;97336.41;110133;1245;71373;-70
2022/01/22 00:56:30;;;;;;;15.40;9.10;;;;;;;-6.97;76.56;97338.14;110239;1245;68725;-67
2022/01/22 00:59:00;;;;;;;9.50;5.90;;;;;;;-7.00;76.23;97331.19;110401;1244;68685;-67
2022/01/22 01:01:30;;;;;;;9.20;7.00;;;;;;;-7.03;76.13;97330.52;110271;1245;60084;-68
2022/01/22 01:04:02;;;;;;;8.20;5.00;;;;;;;-7.06;76.02;97329.20;110232;1247;59649;-68
2022/01/22 01:06:32;;;;;;;10.10;6.90;;;;;;;-7.10;75.80;97326.33;110248;1247;71322;-63
2022/01/22 01:09:04;;;;;;;10.20;7.80;;;;;;;-7.15;75.89;97326.86;110144;1246;67645;-66
2022/01/22 01:11:37;;;;;;;14.40;9.10;;;;;;;-7.23;75.95;97325.37;110325;1244;69227;-66
2022/01/22 01:14:11;;;;;;;10.50;5.60;;;;;;;-7.29;75.97;97324.54;110442;1244;59743;-66
2022/01/22 01:16:56;;;;;;;8.20;5.60;;;;;;;-7.34;76.04;97319.14;110347;1247;59681;-68
2022/01/22 01:33:46;;;;;;;9.30;6.90;;;;;;;-7.62;76.25;97294.36;110185;1247;71639;-64
2022/01/22 01:36:16;;;;;;;6.80;4.80;;;;;;;-7.66;76.19;97294.03;110169;1247;68025;-65
2022/01/22 01:38:52;;;;;;;6.00;5.30;;;;;;;-7.68;76.17;97293.02;110339;1245;67463;-64
2022/01/22 01:41:32;;;;;;;16.00;9.40;;;;;;;-7.67;76.48;97295.04;110409;1244;59678;-65
2022/01/22 01:44:01;;;;;;;8.00;5.30;;;;;;;-7.66;76.56;97295.05;110577;1245;59698;-62
2022/01/22 01:47:00;;;;;;;10.10;6.90;;;;;;;-7.65;76.41;97293.85;110263;1245;70941;-63
2022/01/22 01:49:33;;;;;;;8.40;6.00;;;;;;;-7.64;76.77;97291.14;110135;1245;67848;-63
2022/01/22 01:52:11;;;;;;;9.60;7.00;;;;;;;-7.63;76.62;97285.73;110025;1247;68413;-64
2022/01/22 01:55:00;;;;;;;16.20;9.60;;;;;;;-7.63;76.58;97281.15;110387;1244;59814;-62
2022/01/22 01:57:38;;;;;;;7.80;5.90;;;;;;;-7.63;76.38;97274.55;110100;1248;59657;-64
2022/01/22 02:00:16;;;;;;;15.90;9.50;;;;;;;-7.64;76.36;97271.00;110158;1247;71150;-64
2022/01/22 02:02:46;;;;;;;7.70;5.90;;;;;;;-7.66;76.34;97263.57;110440;1244;68400;-65
2022/01/22 02:05:21;;;;;;;11.30;8.10;;;;;;;-7.70;76.18;97256.80;110167;1247;69465;-67
2022/01/22 02:07:55;;;;;;;11.00;6.60;;;;;;;-7.75;76.26;97256.83;110329;1244;59747;-66
2022/01/22 02:10:31;;;;;;;8.80;6.30;;;;;;;-7.79;76.03;97262.09;110456;1244;59751;-69
2022/01/22 02:13:42;;;;;;;9.50;7.20;;;;;;;-7.82;76.48;97259.89;110276;1245;72254;-69
2022/01/22 02:24:26;;;;;;;14.70;8.80;;;;;;;-7.89;77.09;97256.88;110121;1247;59722;-67
2022/01/22 02:26:56;;;;;;;12.70;8.10;;;;;;;-7.87;76.79;97252.96;110446;1244;70595;-68
2022/01/22 02:29:32;;;;;;;16.70;9.10;;;;;;;-7.84;77.52;97260.91;110481;1244;67792;-67
2022/01/22 02:35:06;;;;;;;13.10;7.20;;;;;;;-7.76;77.36;97262.77;110241;1247;59680;-67
2022/01/22 02:37:40;;;;;;;18.40;11.90;;;;;;;-7.75;77.17;97264.45;110440;1244;59687;-67
2022/01/22 02:40:16;;;;;;;13.70;6.80;;;;;;;-7.74;77.03;97259.54;110153;1244;71532;-66
2022/01/22 02:42:46;;;;;;;18.00;10.80;;;;;;;-7.68;76.48;97259.85;110304;1247;68470;-69
2022/01/22 02:45:20;;;;;;;14.70;9.00;;;;;;;-7.69;76.50;97258.83;110302;1246;69396;-68
2022/01/22 02:47:52;;;;;;;15.90;10.10;;;;;;;-7.66;76.47;97257.98;110378;1244;59684;-66
2022/01/22 02:50:22;;;;;;;12.60;8.50;;;;;;;-7.68;76.75;97257.65;110359;1245;59718;-66
2022/01/22 02:52:52;;;;;;;16.30;9.70;;;;;;;-7.69;76.45;97254.27;110433;1244;70912;-65
2022/01/22 02:55:22;;;;;;;18.60;10.60;;;;;;;-7.66;76.63;97253.92;110448;1244;68487;-65
2022/01/22 02:57:53;;;;;;;14.70;10.50;;;;;;;-7.66;76.61;97258.16;110106;1245;68656;-67
2022/01/22 03:00:25;;;;;;;14.20;9.70;;;;;;;-7.65;76.49;97259.17;110123;1245;59657;-64
2022/01/22 03:02:54;;;;;;;15.70;9.30;;;;;;;-7.65;76.52;97260.70;110374;1244;59750;-67
2022/01/22 03:05:28;;;;;;;18.40;11.00;;;;;;;-7.69;76.29;97255.28;110085;1247;70788;-66
2022/01/22 03:07:59;;;;;;;;;;;;;;;-7.72;76.49;97256.48;110130;1244;68224;-67
2022/01/22 03:10:29;;;;;;;13.70;7.90;;;;;;;-7.75;76.52;97257.16;110384;1244;68593;-63
2022/01/22 03:15:55;;;;;;;22.50;11.10;;;;;;;-7.73;77.73;97254.11;110094;1247;59656;-63
2022/01/22 03:29:45;;;;;;;15.90;9.20;;;;;;;-7.46;78.13;97249.45;110170;1245;59668;-67
2022/01/22 03:32:15;;;;;;;7.00;5.30;;;;;;;-7.40;78.22;97250.94;110101;1247;71629;-67
2022/01/22 03:34:57;;;;;;;7.60;5.50;;;;;;;-7.34;77.86;97247.17;110091;1244;67842;-64
2022/01/22 03:37:28;;;;;;;7.00;4.60;;;;;;;-7.28;77.55;97243.77;110166;1244;69352;-64
2022/01/22 03:39:58;;;;;;;16.10;9.90;;;;;;;-7.23;77.77;97240.70;110097;1247;59726;-66
2022/01/22 03:42:29;;;;;;;10.50;6.40;;;;;;;-7.18;77.60;97235.42;110127;1245;59728;-67
2022/01/22 03:44:59;;;;;;;7.60;5.70;;;;;;;-7.13;77.31;97228.95;110399;1244;70680;-64
2022/01/22 03:47:28;;;;;;;6.80;5.50;;;;;;;-7.07;77.30;97227.89;110133;1244;68489;-67
2022/01/22 03:49:59;;;;;;;6.20;4.70;;;;;;;-7.02;77.05;97227.02;110129;1247;69563;-64
2022/01/22 03:52:29;;;;;;;8.80;6.00;;;;;;;-6.98;77.02;97221.23;110119;1245;59735;-64
2022/01/22 03:54:59;;;;;;;9.30;6.10;;;;;;;-6.95;77.10;97216.80;110097;1247;59675;-66
2022/01/22 03:57:48;;;;;;;7.20;5.00;;;;;;;-6.92;76.81;97205.77;110143;1247;70754;-67
2022/01/22 04:00:18;;;;;;;10.60;5.20;;;;;;;-6.90;76.86;97201.85;110153;1247;68643;-67
2022/01/22 04:05:35;;;;;;;9.00;5.60;;;;;;;-6.85;76.66;97196.58;110097;1247;59709;-67
2022/01/22 04:08:14;;;;;;;9.30;5.70;;;;;;;-6.85;76.34;97199.10;110072;1244;59687;-69
2022/01/22 04:10:44;;;;;;;8.70;5.60;;;;;;;-6.85;76.06;97195.38;110096;1246;71645;-68
2022/01/22 04:13:17;;;;;;;14.60;9.40;;;;;;;-6.83;75.92;97196.73;110133;1247;67640;-67
2022/01/22 04:15:48;;;;;;;16.70;9.60;;;;;;;-6.85;75.76;97197.59;110408;1244;68242;-68
2022/01/22 04:26:54;;;;;;;17.10;10.20;;;;;;;-7.08;76.62;97191.81;110272;1244;68519;-64
2022/01/22 04:29:27;;;;;;;8.90;7.10;;;;;;;-7.11;76.70;97191.85;110135;1247;68488;-68
2022/01/22 04:31:57;;;;;;;9.60;6.90;;;;;;;-7.10;76.63;97188.12;110339;1244;59662;-65
2022/01/22 04:34:28;;;;;;;9.80;6.00;;;;;;;-7.07;76.52;97188.76;110055;1245;59687;-68
2022/01/22 04:36:58;;;;;;;11.40;7.90;;;;;;;-7.02;76.57;97190.09;110321;1244;71069;-68
2022/01/22 04:39:28;;;;;;;10.40;6.50;;;;;;;-6.98;76.62;97192.59;110200;1244;67155;-65
2022/01/22 04:41:57;;;;;;;15.90;9.30;;;;;;;-6.93;76.39;97194.77;110406;1244;68527;-66
2022/01/22 04:44:32;;;;;;;7.10;5.60;;;;;;;-6.88;76.17;97195.75;110202;1245;59673;-67
2022/01/22 04:55:04;;;;;;;10.50;7.10;;;;;;;-6.75;75.95;97215.31;110501;1244;70179;-69
2022/01/22 04:57:42;;;;;;;21.20;11.10;;;;;;;-6.71;75.81;97214.75;110474;1244;59696;-66
2022/01/22 05:00:17;;;;;;;20.90;12.60;;;;;;;-6.71;76.38;97217.81;110323;1244;59577;-64
2022/01/22 05:03:10;;;;;;;13.30;9.40;;;;;;;-6.75;76.23;97217.34;110079;1245;71450;-65
2022/01/22 05:05:45;;;;;;;13.90;10.00;;;;;;;-6.76;76.53;97218.70;110381;1244;67909;-64
2022/01/22 05:08:47;;;;;;;21.30;13.30;;;;;;;-6.78;77.03;97225.84;109805;1247;68685;-66
2022/01/22 05:11:19;;;;;;;20.20;13.00;;;;;;;-6.81;77.66;97224.66;110318;1244;59720;-68
2022/01/22 05:13:52;;;;;;;22.30;13.20;;;;;;;-6.84;77.92;97224.17;110274;1245;59636;-64
2022/01/22 05:16:22;;;;;;;25.90;15.60;;;;;;;-6.87;78.37;97220.83;110070;1244;70718;-66
2022/01/22 05:19:01;;;;;;;19.50;12.50;;;;;;;-6.87;78.14;97226.74;110134;1247;68546;-63
2022/01/22 05:21:36;;;;;;;21.10;12.70;;;;;;;-6.92;78.48;97226.10;110352;1244;68643;-65
2022/01/22 05:24:11;;;;;;;19.50;12.30;;;;;;;-6.96;79.28;97231.38;110295;1247;59733;-64
2022/01/22 05:29:21;;;;;;;22.90;14.10;;;;;;;-6.97;80.29;97228.33;110343;1244;70807;-64
2022/01/22 05:38:37;;;;;;;23.60;13.80;;;;;;;-6.97;80.61;97222.41;110190;1244;59741;-64
2022/01/22 05:41:06;;;;;;;23.00;14.50;;;;;;;-6.98;80.53;97222.42;110275;1247;59809;-65
2022/01/22 05:43:36;;;;;;;18.30;12.00;;;;;;;-6.99;80.60;97222.08;110301;1244;71602;-67
2022/01/22 05:46:06;;;;;;;22.50;14.00;;;;;;;-6.97;80.31;97224.95;110342;1244;68855;-64
2022/01/22 05:48:35;;;;;;;22.10;13.10;;;;;;;-6.94;80.46;97219.16;110390;1244;68606;-65
2022/01/22 05:51:06;;;;;;;23.50;13.10;;;;;;;-6.93;80.31;97218.49;110399;1244;59718;-68
2022/01/22 06:02:04;;;;;;;19.20;10.50;;;;;;;-6.77;79.52;97220.58;110370;1244;69530;-65
2022/01/22 06:04:34;;;;;;;22.30;15.60;;;;;;;-6.73;79.52;97221.56;110127;1247;59733;-63
2022/01/22 06:07:07;;;;;;;19.30;12.80;;;;;;;-6.72;80.30;97222.39;110114;1245;59733;-66
2022/01/22 06:09:51;;;;;;;19.20;11.40;;;;;;;-6.68;80.31;97222.36;110431;1244;72208;-66
2022/01/22 06:12:40;;;;;;;20.90;11.60;;;;;;;-6.63;80.28;97221.31;110502;1244;68429;-66
2022/01/22 06:15:11;;;;;;;8.90;6.40;;;;;;;-6.56;80.15;97225.33;110513;1244;68850;-66
2022/01/22 06:17:59;;;;;;;11.50;6.50;;;;;;;-6.48;79.78;97226.63;110538;1244;59648;-69
2022/01/22 06:20:28;;;;;;;9.40;6.10;;;;;;;-6.41;79.63;97220.27;110310;1244;60048;-66
2022/01/22 06:22:57;;;;;;;10.30;7.80;;;;;;;-6.33;79.33;97221.40;110015;1247;72115;-64
2022/01/22 06:25:27;;;;;;;15.70;9.00;;;;;;;-6.25;79.20;97216.75;110197;1244;69328;-64
2022/01/22 06:27:57;;;;;;;;;;;;;;;-6.20;79.02;97219.06;110096;1244;69696;-67
2022/01/22 06:30:26;;;;;;;19.40;11.90;;;;;;;-6.18;79.27;97219.90;110600;1244;59680;-67
2022/01/22 06:32:57;;;;;;;17.00;10.80;;;;;;;-6.18;79.36;97223.80;110622;1244;59734;-65
2022/01/22 06:35:27;;;;;;;20.40;12.80;;;;;;;-6.21;79.07;97224.32;110070;1245;71755;-68
2022/01/22 06:37:59;;;;;;;17.10;11.40;;;;;;;-6.22;79.79;97223.67;110321;1245;69221;-65
2022/01/22 06:43:57;;;;;;;12.60;8.10;;;;;;;-6.14;79.14;97224.27;110220;1245;60132;-65
2022/01/22 06:46:46;;;;;;;14.90;10.20;;;;;;;-6.10;79.39;97223.04;110338;1243;59697;-68
2022/01/22 06:49:35;;;;;;;17.10;10.20;;;;;;;-6.06;80.09;97225.20;110277;1244;70760;-67
2022/01/22 06:52:30;;;;;;;13.40;9.80;;;;;;;-6.00;79.32;97222.60;109792;1248;67893;-66
2022/01/22 06:55:05;;;;;;;16.40;10.70;;;;;;;-6.00;78.95;97220.05;110474;1244;69279;-64
2022/01/22 06:57:34;;;;;;;23.80;15.20;;;;;;;-6.02;79.21;97216.68;110108;1245;59721;-64
2022/01/22 07:00:06;;;;;;;24.90;13.70;;;;;;;-6.06;78.86;97220.95;109801;1244;544747;-68
2022/01/22 07:02:39;;;;;;;20.10;13.90;;;;;;;-6.07;79.13;97218.42;110151;1244;71518;-69
2022/01/22 07:05:09;;;;;;;24.20;14.60;;;;;;;-6.03;79.31;97225.01;110131;1244;68429;-66
2022/01/22 07:07:49;;;;;;;;;;;;;;;-5.96;79.13;97225.10;110102;1247;69611;-67
2022/01/22 07:10:19;;;;;;;22.10;13.30;;;;;;;-5.90;79.07;97222.63;110353;1244;59665;-64
2022/01/22 07:12:49;;;;;;;17.80;12.00;;;;;;;-5.87;79.00;97217.34;110222;1247;60025;-63
2022/01/22 07:15:20;;;;;;;16.70;11.60;;;;;;;-5.80;79.06;97219.64;110383;1244;70909;-67
2022/01/22 07:17:49;;;;;;;15.50;10.40;;;;;;;-5.65;78.72;97224.89;110098;1247;69179;-68
2022/01/22 07:20:26;;;;;;;19.10;12.70;;;;;;;-5.39;78.32;97230.36;110189;1245;69371;-67
2022/01/22 07:25:44;;;;;;;16.60;11.80;;;;;;;-4.71;75.66;97232.63;110402;1245;59679;-67
2022/01/22 07:28:22;;;;;;;21.80;13.40;;;;;;;-4.50;75.98;97229.42;110225;1247;70606;-63
2022/01/22 07:30:52;;;;;;;20.20;12.90;;;;;;;-4.35;73.06;97224.05;110434;1245;69100;-64
2022/01/22 07:33:23;;;;;;;21.80;13.60;;;;;;;-4.28;72.91;97225.66;110113;1247;69888;-65
2022/01/22 07:35:55;;;;;;;17.60;12.40;;;;;;;-4.28;72.42;97226.48;110321;1247;59719;-68
2022/01/22 07:38:28;;;;;;;17.50;10.80;;;;;;;-4.21;72.19;97229.62;110287;1245;59742;-68
2022/01/22 07:40:58;;;;;;;16.50;12.00;;;;;;;-4.07;71.26;97231.42;110128;1246;72177;-68
2022/01/22 07:43:38;;;;;;;19.50;11.00;;;;;;;-3.85;70.33;97238.48;110381;1244;68862;-71
2022/01/22 07:46:21;;;;;;;15.20;8.80;;;;;;;-3.60;69.12;97237.35;110241;1247;70369;-64
2022/01/22 07:48:57;;;;;;;15.10;10.60;;;;;;;-3.30;68.71;97237.61;110457;1244;59729;-64
2022/01/22 07:51:45;;;;;;;13.80;9.70;;;;;;;-3.16;66.79;97239.00;110491;1243;59684;-68
2022/01/22 07:54:15;;;;;;;16.90;11.10;;;;;;;-2.92;66.49;97241.23;110385;1244;70911;-64
2022/01/22 07:56:44;;;;;;;14.30;9.60;;;;;;;-2.72;65.16;97238.05;110161;1244;68476;-68
2022/01/22 07:59:14;;;;;;;10.60;6.90;;;;;;;-2.34;64.16;97234.95;110419;1244;69313;-68
2022/01/22 08:01:47;;;;;;;16.20;9.70;;;;;;;-1.55;62.83;97236.30;110114;1244;59672;-70
2022/01/22 08:04:25;;;;;;;14.60;9.30;;;;;;;-1.05;59.60;97241.73;110323;1244;59761;-66
2022/01/22 08:07:32;;;;;;;12.80;9.90;;;;;;;-0.64;57.92;97243.41;110317;1244;72112;-69
2022/01/22 08:10:20;;;;;;;12.30;8.70;;;;;;;-0.16;56.56;97242.90;110409;1244;67984;-67
2022/01/22 08:12:52;;;;;;;15.80;10.90;;;;;;;-0.25;55.42;97246.77;110109;1247;69825;-67
2022/01/22 08:15:21;;;;;;;15.60;10.80;;;;;;;-0.80;56.18;97246.12;110100;1244;59727;-66
2022/01/22 08:17:51;;;;;;;14.10;9.20;;;;;;;-1.39;58.26;97245.27;110216;1245;59708;-65
2022/01/22 08:20:21;;;;;;;12.10;9.10;;;;;;;-1.59;59.05;97247.02;110313;1245;71493;-65
2022/01/22 08:22:51;;;;;;;18.80;10.50;;;;;;;-1.83;59.32;97252.42;110476;1244;68564;-66
2022/01/22 08:25:44;;;;;;;15.10;10.50;;;;;;;-2.20;60.68;97256.28;110312;1247;69278;-67
2022/01/22 08:36:55;;;;;;;;;;;;;;;-3.02;63.05;97254.91;110584;1244;68447;-70
2022/01/22 08:39:26;;;;;;;11.00;8.30;;;;;;;-2.99;62.13;97254.85;110264;1244;70044;-66
2022/01/22 08:41:56;;;;;;;12.70;8.30;;;;;;;-2.68;62.13;97250.92;110570;1243;59688;-64
2022/01/22 08:44:27;;;;;;;13.10;9.60;;;;;;;-2.42;61.11;97254.76;110184;1244;59770;-71
2022/01/22 08:46:57;;;;;;;16.30;11.20;;;;;;;-2.39;61.25;97256.06;110336;1244;70596;-70
2022/01/22 08:49:26;;;;;;;13.20;8.60;;;;;;;-2.33;61.33;97257.95;110186;1244;69014;-64
2022/01/22 08:52:16;;;;;;;10.20;8.10;;;;;;;-2.60;60.03;97255.34;110308;1244;69484;-66
2022/01/22 08:54:47;;;;;;;12.00;7.90;;;;;;;-2.92;60.95;97261.00;110036;1244;59724;-68
2022/01/22 08:57:19;;;;;;;12.30;8.70;;;;;;;-2.96;62.51;97258.54;110321;1244;59739;-68
2022/01/22 09:00:01;;;;;;;14.50;8.30;;;;;;;-2.93;62.82;97265.30;110467;1244;70754;-70
2022/01/22 09:02:30;;;;;;;11.30;7.80;;;;;;;-2.86;63.12;97263.60;110289;1244;67845;-72
2022/01/22 09:05:19;;;;;;;9.30;7.00;;;;;;;-2.88;62.00;97267.39;110528;1244;69431;-69
2022/01/22 09:08:08;;;;;;;8.10;5.90;;;;;;;-2.93;62.71;97263.59;110461;1244;59718;-67
2022/01/22 09:10:56;;;;;;;14.50;7.40;;;;;;;-2.98;62.29;97264.04;110193;1244;59700;-64
2022/01/22 09:14:05;;;;;;;11.80;8.00;;;;;;;-3.14;62.52;97262.83;109943;1248;71000;-67
2022/01/22 09:16:42;;;;;;;13.30;9.50;;;;;;;-3.26;63.01;97261.89;109939;1250;68044;-70
2022/01/22 09:19:14;;;;;;;13.00;7.30;;;;;;;-3.35;63.23;97267.88;109940;1244;69108;-68
2022/01/22 09:21:46;;;;;;;10.90;7.40;;;;;;;-3.41;63.73;97269.35;110204;1245;59701;-69
2022/01/22 09:24:16;;;;;;;14.30;9.30;;;;;;;-3.42;64.11;97267.50;110161;1245;59615;-64
2022/01/22 09:26:51;;;;;;;15.50;10.70;;;;;;;-3.62;64.49;97268.05;110061;1247;71528;-70
2022/01/22 09:29:20;;;;;;;15.20;9.60;;;;;;;-3.74;65.10;97267.76;110060;1247;69297;-66
2022/01/22 09:31:50;;;;;;;13.50;10.70;;;;;;;-3.80;65.27;97265.66;110213;1246;69812;-66
2022/01/22 09:34:51;;;;;;;19.10;9.10;;;;;;;-3.93;66.01;97265.90;110273;1245;59754;-67
2022/01/22 09:37:59;;;;;;;17.70;12.40;;;;;;;-3.97;66.25;97262.23;109925;1250;59710;-70
2022/01/22 09:41:05;;;;;;;20.10;12.90;;;;;;;-4.07;66.51;97262.90;109906;1250;70889;-68
2022/01/22 09:43:55;;;;;;;18.30;13.20;;;;;;;-4.27;67.42;97265.30;110149;1244;69007;-70
2022/01/22 09:47:03;;;;;;;16.20;9.90;;;;;;;-4.30;68.03;97268.73;109927;1250;69433;-68
2022/01/22 09:49:40;;;;;;;19.50;11.80;;;;;;;-4.25;67.87;97261.16;109888;1250;59739;-68
2022/01/22 09:52:28;;;;;;;14.20;9.10;;;;;;;-4.24;67.65;97265.06;110077;1244;59754;-65
2022/01/22 09:55:16;;;;;;;16.80;9.60;;;;;;;-4.20;67.59;97271.11;110261;1244;72287;-65
2022/01/22 09:58:08;;;;;;;11.90;7.90;;;;;;;-4.13;67.18;97268.44;109774;1247;66693;-68
2022/01/22 10:01:33;;;;;;;15.00;8.50;;;;;;;-4.03;67.00;97263.17;110065;1247;68920;-65
2022/01/22 10:04:10;;;;;;;13.80;9.30;;;;;;;-3.92;66.94;97261.11;110394;1244;59676;-69
2022/01/22 10:06:55;;;;;;;15.30;10.40;;;;;;;-3.88;66.18;97262.21;110401;1244;59613;-69
2022/01/22 10:09:56;;;;;;;13.20;8.20;;;;;;;-3.92;66.55;97260.76;110296;1245;70924;-68
2022/01/22 10:12:48;;;;;;;20.80;13.80;;;;;;;-3.79;66.54;97256.45;110252;1247;67767;-65
2022/01/22 10:15:39;;;;;;;26.40;16.70;;;;;;;-3.62;66.62;97257.30;110271;1244;69196;-67
2022/01/22 10:18:22;;;;;;;16.80;10.80;;;;;;;-3.43;65.82;97254.72;110375;1244;59753;-67
2022/01/22 10:20:50;;;;;;;30.20;16.90;;;;;;;-3.32;65.25;97254.53;110120;1245;59714;-65
2022/01/22 10:23:25;;;;;;;54.80;24.60;;;;;;;-3.17;65.58;97251.98;110154;1247;71668;-66
2022/01/22 10:26:02;;;;;;;17.60;11.20;;;;;;;-3.00;65.50;97249.06;110097;1247;67865;-66
2022/01/22 10:28:48;;;;;;;13.90;8.70;;;;;;;-2.87;64.88;97253.56;110327;1245;69980;-67
2022/01/22 10:31:25;;;;;;;19.90;11.20;;;;;;;-2.79;64.83;97255.79;110113;1247;59675;-66
2022/01/22 10:34:20;;;;;;;12.10;7.90;;;;;;;-2.77;64.78;97255.40;110020;1247;59672;-68
2022/01/22 10:37:29;;;;;;;13.40;9.10;;;;;;;-2.79;65.63;97257.32;109845;1251;70953;-69
2022/01/22 10:40:26;;;;;;;37.00;18.20;;;;;;;-2.69;65.43;97251.44;109699;1253;69244;-65
2022/01/22 10:45:59;;;;;;;18.00;11.40;;;;;;;-1.73;62.98;97248.75;110213;1247;59694;-67
2022/01/22 10:48:28;;;;;;;12.80;9.00;;;;;;;-1.48;61.25;97247.59;110052;1245;59667;-67
2022/01/22 10:51:10;;;;;;;8.80;7.00;;;;;;;-1.47;60.67;97249.27;110030;1244;70988;-66
2022/01/22 10:53:46;;;;;;;16.80;11.10;;;;;;;-1.40;61.14;97246.84;110167;1244;67954;-65
2022/01/22 10:56:22;;;;;;;9.40;7.10;;;;;;;-0.23;58.32;97249.95;110157;1247;69244;-68
2022/01/22 10:59:12;;;;;;;10.50;6.80;;;;;;;1.29;53.84;97244.45;110605;1244;59763;-68
2022/01/22 11:01:54;;;;;;;31.40;17.70;;;;;;;1.43;53.30;97240.29;110296;1247;59749;-70
2022/01/22 11:04:28;;;;;;;28.40;15.80;;;;;;;1.18;51.85;97241.75;110191;1247;71316;-69
2022/01/22 11:07:06;;;;;;;19.30;11.80;;;;;;;0.79;52.55;97245.62;110173;1244;68646;-64
2022/01/22 11:10:06;;;;;;;11.20;7.90;;;;;;;0.18;53.26;97246.41;110671;1244;69361;-69
2022/01/22 11:12:34;;;;;;;24.60;14.40;;;;;;;-0.16;54.68;97243.41;110450;1244;59761;-69
2022/01/22 11:15:04;;;;;;;10.90;8.10;;;;;;;-0.39;55.37;97239.38;110236;1244;59683;-65
2022/01/22 11:17:33;;;;;;;20.00;12.10;;;;;;;-0.52;56.00;97236.20;110392;1244;71517;-64
2022/01/22 11:20:05;;;;;;;13.40;10.10;;;;;;;-0.38;56.41;97233.68;110354;1244;68476;-67
2022/01/22 11:22:38;;;;;;;12.70;7.90;;;;;;;-0.07;55.96;97230.45;110093;1246;69464;-69
2022/01/22 11:25:15;;;;;;;10.70;7.50;;;;;;;0.01;54.34;97227.45;110232;1245;59734;-65
2022/01/22 11:27:45;;;;;;;;;;;;;;;-0.10;54.44;97225.41;110089;1247;59679;-66
2022/01/22 11:30:17;;;;;;;20.90;12.20;;;;;;;-0.20;55.34;97225.41;110508;1244;70605;-63
2022/01/22 11:32:49;;;;;;;25.30;15.10;;;;;;;-0.37;55.97;97222.51;110285;1247;67726;-66
2022/01/22 11:35:23;;;;;;;35.40;22.10;;;;;;;-0.56;55.95;97227.56;110564;1244;68697;-71
2022/01/22 11:38:03;;;;;;;11.80;7.60;;;;;;;-0.82;57.85;97225.48;110566;1244;59754;-68
2022/01/22 11:40:34;;;;;;;15.00;8.60;;;;;;;-1.13;59.12;97228.28;110432;1244;59589;-66
2022/01/22 11:43:19;;;;;;;13.00;8.80;;;;;;;-1.26;60.31;97227.81;110370;1244;72165;-66
2022/01/22 11:45:54;;;;;;;16.10;10.30;;;;;;;-1.33;60.74;97227.15;110564;1244;67905;-66
2022/01/22 11:48:30;;;;;;;16.60;12.10;;;;;;;-1.37;60.54;97222.82;110427;1245;68564;-64
2022/01/22 11:51:22;;;;;;;15.80;10.90;;;;;;;-1.45;58.40;97221.35;110418;1244;59664;-68
2022/01/22 11:53:57;;;;;;;12.10;7.40;;;;;;;-1.60;57.15;97215.59;110127;1245;59734;-67
2022/01/22 11:56:31;;;;;;;12.60;8.10;;;;;;;-1.66;57.68;97216.77;110360;1244;71604;-69
2022/01/22 11:59:04;;;;;;;6.60;5.40;;;;;;;-1.72;57.58;97214.20;110298;1247;68709;-68
2022/01/22 12:02:03;;;;;;;8.90;5.80;;;;;;;-1.73;57.90;97215.28;110156;1245;68572;-69
2022/01/22 12:04:39;;;;;;;10.20;6.80;;;;;;;-1.62;57.98;97219.92;110660;1244;59754;-67
2022/01/22 12:07:08;;;;;;;10.80;7.60;;;;;;;-1.45;57.81;97225.60;110376;1244;59688;-68
2022/01/22 12:09:51;;;;;;;9.70;6.50;;;;;;;-1.44;55.90;97228.81;110447;1244;71565;-67
2022/01/22 12:15:31;;;;;;;7.70;5.70;;;;;;;-1.48;56.77;97229.27;110472;1244;68819;-67
2022/01/22 12:18:04;;;;;;;13.10;8.30;;;;;;;-1.46;57.47;97233.67;110292;1243;59791;-67
2022/01/22 12:21:30;;;;;;;11.30;7.60;;;;;;;-1.40;57.86;97240.18;110422;1244;60227;-64
2022/01/22 12:23:33;;;;;;;9.20;6.60;;;;;;;-1.49;57.63;97239.89;110194;1245;71651;-65
2022/01/22 12:26:04;;;;;;;13.50;6.50;;;;;;;-1.50;57.62;97238.08;110545;1244;68405;-71
2022/01/22 12:28:42;;;;;;;6.70;3.80;;;;;;;-1.57;56.18;97240.64;110578;1244;67471;-68
2022/01/22 12:31:19;;;;;;;8.90;5.60;;;;;;;-1.80;54.96;97246.22;110353;1244;59737;-65
2022/01/22 12:33:54;;;;;;;11.40;7.50;;;;;;;-1.97;56.05;97248.69;110367;1244;59595;-65
2022/01/22 12:36:39;;;;;;;9.90;5.40;;;;;;;-2.13;56.28;97247.90;110501;1244;72105;-65
2022/01/22 12:39:17;;;;;;;8.50;5.90;;;;;;;-2.31;57.01;97252.95;110180;1244;68437;-70
2022/01/22 12:41:55;;;;;;;;;;;;;;;-2.41;57.56;97254.56;110558;1244;69451;-68
2022/01/22 12:47:05;;;;;;;9.90;6.30;;;;;;;-2.66;57.34;97257.53;110584;1244;59747;-65
2022/01/22 12:49:36;;;;;;;12.30;9.30;;;;;;;-2.76;57.48;97257.77;110526;1244;71718;-67
2022/01/22 12:52:12;;;;;;;9.40;6.60;;;;;;;-2.86;58.41;97261.90;110425;1244;68452;-63
2022/01/22 12:54:47;;;;;;;10.60;6.00;;;;;;;-3.03;59.10;97258.35;110344;1244;69665;-64
2022/01/22 12:57:24;;;;;;;13.70;9.80;;;;;;;-3.13;59.29;97266.90;110320;1244;59690;-67
2022/01/22 13:00:11;;;;;;;16.70;10.60;;;;;;;-3.17;60.00;97267.17;110345;1244;59766;-65
2022/01/22 13:02:46;;;;;;;12.30;8.80;;;;;;;-3.19;59.99;97270.27;110552;1244;72040;-68
2022/01/22 13:05:18;;;;;;;23.20;13.20;;;;;;;-3.17;59.92;97271.60;110500;1245;67622;-68
2022/01/22 13:08:26;;;;;;;;;;;;;;;-3.15;60.19;97270.88;110327;1245;68914;-66
2022/01/22 13:11:13;;;;;;;13.90;9.10;;;;;;;-3.18;59.54;97275.02;110519;1245;59676;-64
2022/01/22 13:13:50;;;;;;;9.00;6.60;;;;;;;-3.17;59.93;97273.98;110427;1244;59683;-67
2022/01/22 13:16:19;;;;;;;12.00;8.70;;;;;;;-3.12;60.24;97271.83;110417;1244;70538;-69
2022/01/22 13:18:58;;;;;;;16.00;11.30;;;;;;;-3.02;59.99;97278.27;110101;1245;68571;-69
2022/01/22 13:21:30;;;;;;;14.20;7.40;;;;;;;-2.92;59.93;97278.06;110416;1244;68453;-66
2022/01/22 13:24:04;;;;;;;9.40;6.80;;;;;;;-2.89;59.52;97280.74;110502;1244;59738;-64
2022/01/22 13:26:59;;;;;;;8.40;6.80;;;;;;;-2.85;59.74;97280.64;110343;1244;59676;-67
2022/01/22 13:29:37;;;;;;;14.50;9.20;;;;;;;-2.77;59.26;97281.15;110166;1246;72090;-68
2022/01/22 13:32:27;;;;;;;15.50;10.50;;;;;;;-2.65;59.48;97280.20;110396;1244;68195;-70
2022/01/22 13:49:13;;;;;;;18.80;11.90;;;;;;;-1.96;57.52;97285.21;110399;1245;69590;-68
2022/01/22 13:51:44;;;;;;;24.10;12.90;;;;;;;-2.03;57.36;97287.80;110128;1245;59681;-65
2022/01/22 13:54:14;;;;;;;24.10;12.20;;;;;;;-2.15;57.39;97294.05;110490;1244;59642;-66
2022/01/22 13:56:48;;;;;;;41.40;21.70;;;;;;;-2.28;57.43;97290.94;110472;1244;71327;-63
2022/01/22 13:59:25;;;;;;;25.50;14.60;;;;;;;-2.40;57.82;97289.52;110536;1244;66780;-65